createdAt,value
2023-02-04T00:00:15.870Z,27.73
2023-02-04T00:02:43.113Z,27.67
2023-02-04T00:05:11.014Z,28.92
2023-02-04T00:07:39.525Z,30.77
2023-02-04T00:10:08.300Z,15.93
2023-02-04T00:12:35.321Z,29.10
2023-02-04T00:15:02.501Z,29.55
2023-02-04T00:17:29.512Z,25.27
2023-02-04T00:19:56.761Z,37.45
2023-02-04T00:22:23.844Z,22.02
2023-02-04T00:24:50.891Z,25.08
2023-02-04T00:27:17.938Z,33.95
2023-02-04T00:29:45.039Z,13.48
2023-02-04T00:32:14.078Z,25.98
2023-02-04T00:34:41.337Z,25.65
2023-02-04T00:37:08.350Z,25.52
2023-02-04T00:39:35.681Z,37.90
2023-02-04T00:42:02.783Z,31.60
2023-02-04T00:44:29.834Z,25.10
2023-02-04T00:46:57.582Z,37.33
2023-02-04T00:49:24.645Z,29.67
2023-02-04T00:51:51.696Z,24.88
2023-02-04T00:54:18.873Z,20.98
2023-02-04T00:56:46.827Z,19.33
2023-02-04T00:59:14.011Z,20.10
2023-02-04T01:01:41.414Z,27.48
2023-02-04T01:04:08.560Z,25.80
2023-02-04T01:06:35.701Z,23.55
2023-02-04T01:09:03.334Z,22.63
2023-02-04T01:11:31.039Z,41.63
2023-02-04T01:13:58.150Z,28.80
2023-02-04T01:16:28.765Z,17.83
2023-02-04T01:18:55.952Z,22.42
2023-02-04T01:21:24.926Z,26.00
2023-02-04T01:23:52.490Z,42.58
2023-02-04T01:26:20.050Z,32.80
2023-02-04T01:28:47.451Z,20.67
2023-02-04T01:31:14.864Z,33.80
2023-02-04T01:33:42.140Z,24.55
2023-02-04T01:36:09.313Z,28.05
2023-02-04T01:38:36.327Z,34.55
2023-02-04T01:41:04.632Z,28.42
2023-02-04T01:43:32.298Z,40.70
2023-02-04T01:45:59.890Z,29.00
2023-02-04T01:48:27.047Z,37.78
2023-02-04T01:51:05.155Z,27.38
2023-02-04T01:53:33.769Z,26.80
2023-02-04T01:56:01.680Z,28.27
2023-02-04T01:58:32.126Z,29.00
2023-02-04T02:00:59.248Z,23.17
2023-02-04T02:03:26.310Z,27.85
2023-02-04T02:05:55.496Z,37.80
2023-02-04T02:08:25.537Z,34.13
2023-02-04T02:10:55.781Z,24.70
2023-02-04T02:13:23.180Z,25.70
2023-02-04T02:15:52.140Z,37.33
2023-02-04T02:18:19.221Z,27.05
2023-02-04T02:20:46.633Z,32.80
2023-02-04T02:23:51.939Z,33.13
2023-02-04T02:26:20.418Z,27.33
2023-02-04T02:28:48.872Z,24.05
2023-02-04T02:31:17.740Z,29.25
2023-02-04T02:33:45.229Z,31.83
2023-02-04T02:36:12.498Z,32.15
2023-02-04T02:38:39.756Z,35.97
2023-02-04T02:41:10.044Z,37.55
2023-02-04T02:43:38.338Z,26.13
2023-02-04T02:46:06.451Z,32.53
2023-02-04T02:48:33.762Z,35.17
2023-02-04T02:51:01.582Z,27.05
2023-02-04T02:53:28.643Z,29.50
2023-02-04T02:55:55.961Z,29.38
2023-02-04T02:58:32.495Z,36.42
2023-02-04T03:01:01.765Z,36.22
2023-02-04T03:03:35.731Z,23.80
2023-02-04T03:06:12.020Z,45.22
2023-02-04T03:08:40.492Z,32.45
2023-02-04T03:11:07.518Z,37.00
2023-02-04T03:13:34.989Z,31.63
2023-02-04T03:16:02.150Z,37.55
2023-02-04T03:18:30.242Z,49.15
2023-02-04T03:20:58.871Z,28.75
2023-02-04T03:23:27.352Z,27.80
2023-02-04T03:25:54.820Z,34.88
2023-02-04T03:28:22.997Z,30.40
2023-02-04T03:30:53.727Z,34.40
2023-02-04T03:33:20.890Z,42.60
2023-02-04T03:35:47.866Z,35.60
2023-02-04T03:38:14.976Z,31.02
2023-02-04T03:40:41.971Z,40.35
2023-02-04T03:43:08.981Z,25.13
2023-02-04T03:45:44.965Z,45.67
2023-02-04T03:48:12.616Z,30.63
2023-02-04T03:50:39.638Z,28.50
2023-02-04T03:53:06.751Z,34.25
2023-02-04T03:55:33.800Z,35.03
2023-02-04T03:58:00.901Z,49.42
2023-02-04T04:00:28.072Z,40.03
2023-02-04T04:02:55.593Z,35.67
2023-02-04T04:05:22.959Z,34.00
2023-02-04T04:07:50.142Z,38.40
2023-02-04T04:10:17.268Z,47.05
2023-02-04T04:12:44.265Z,25.50
2023-02-04T04:15:11.370Z,44.70
2023-02-04T04:17:38.514Z,40.30
2023-02-04T04:20:06.208Z,31.38
2023-02-04T04:22:33.871Z,42.67
2023-02-04T04:25:00.936Z,36.42
2023-02-04T04:27:29.099Z,50.53
2023-02-04T04:29:56.740Z,31.88
2023-02-04T04:32:23.854Z,33.90
2023-02-04T04:34:50.910Z,38.17
2023-02-04T04:37:17.983Z,32.95
2023-02-04T04:39:45.128Z,42.20
2023-02-04T04:42:12.267Z,28.10
2023-02-04T04:44:39.324Z,38.97
2023-02-04T04:47:06.364Z,35.03
2023-02-04T04:49:33.358Z,44.25
2023-02-04T04:52:00.404Z,38.50
2023-02-04T04:54:27.459Z,29.55
2023-02-04T04:56:54.559Z,52.53
2023-02-04T04:59:21.672Z,30.08
2023-02-04T05:01:48.757Z,39.55
2023-02-04T05:04:15.799Z,42.08
2023-02-04T05:06:42.839Z,46.17
2023-02-04T05:09:09.990Z,39.15
2023-02-04T05:11:37.117Z,40.47
2023-02-04T05:14:04.114Z,40.97
2023-02-04T05:16:31.188Z,37.15
2023-02-04T05:18:58.363Z,34.78
2023-02-04T05:21:25.358Z,34.38
2023-02-04T05:23:52.351Z,48.65
2023-02-04T05:26:29.530Z,43.53
2023-02-04T05:28:57.444Z,45.97
2023-02-04T05:31:24.572Z,39.47
2023-02-04T05:33:51.774Z,46.47
2023-02-04T05:36:18.792Z,29.80
2023-02-04T05:38:46.016Z,50.85
2023-02-04T05:41:13.054Z,33.65
2023-02-04T05:43:40.195Z,33.50
2023-02-04T05:46:07.229Z,40.78
2023-02-04T05:48:34.357Z,37.85
2023-02-04T05:51:01.409Z,39.42
2023-02-04T05:53:30.604Z,30.63
2023-02-04T05:55:57.703Z,28.50
2023-02-04T05:58:24.686Z,45.17
2023-02-04T06:00:51.668Z,37.53
2023-02-04T06:03:19.543Z,29.45
2023-02-04T06:05:46.762Z,34.67
2023-02-04T06:08:15.778Z,32.75
2023-02-04T06:10:42.763Z,41.97
2023-02-04T06:13:09.943Z,34.45
2023-02-04T06:15:37.094Z,44.72
2023-02-04T06:18:04.133Z,51.80
2023-02-04T06:20:31.464Z,42.30
2023-02-04T06:22:58.667Z,50.20
2023-02-04T06:25:25.747Z,28.45
2023-02-04T06:27:52.881Z,45.90
2023-02-04T06:30:19.954Z,35.95
2023-02-04T06:32:46.975Z,29.75
2023-02-04T06:35:16.449Z,32.17
2023-02-04T06:37:44.364Z,43.55
2023-02-04T06:40:12.165Z,49.03
2023-02-04T06:42:39.223Z,42.65
2023-02-04T06:45:07.080Z,37.03
2023-02-04T06:47:34.126Z,37.47
2023-02-04T06:50:01.152Z,42.15
2023-02-04T06:52:28.189Z,21.15
2023-02-04T06:54:55.370Z,29.75
2023-02-04T06:57:22.343Z,38.85
2023-02-04T06:59:49.791Z,32.00
2023-02-04T07:02:16.902Z,37.38
2023-02-04T07:04:43.959Z,43.17
2023-02-04T07:07:11.674Z,32.53
2023-02-04T07:09:40.557Z,35.00
2023-02-04T07:12:07.744Z,42.45
2023-02-04T07:14:34.963Z,51.83
2023-02-04T07:17:02.209Z,44.05
2023-02-04T07:19:29.282Z,45.95
2023-02-04T07:21:57.012Z,53.22
2023-02-04T07:24:24.349Z,37.72
2023-02-04T07:26:51.385Z,35.17
2023-02-04T07:29:25.684Z,30.60
2023-02-04T07:31:53.585Z,45.08
2023-02-04T07:34:21.059Z,36.63
2023-02-04T07:36:48.356Z,57.08
2023-02-04T07:39:15.394Z,36.22
2023-02-04T07:41:42.449Z,50.42
2023-02-04T07:44:09.526Z,38.25
2023-02-04T07:46:36.652Z,34.45
2023-02-04T07:49:03.812Z,43.22
2023-02-04T07:51:31.065Z,37.65
2023-02-04T07:53:58.100Z,51.13
2023-02-04T07:56:25.099Z,57.42
2023-02-04T07:58:52.271Z,48.53
2023-02-04T08:01:19.408Z,38.25
2023-02-04T08:03:46.604Z,30.83
2023-02-04T08:06:13.626Z,54.03
2023-02-04T08:08:40.719Z,42.70
2023-02-04T08:11:07.910Z,29.80
2023-02-04T08:13:34.920Z,27.63
2023-02-04T08:16:02.217Z,49.03
2023-02-04T08:18:29.289Z,42.20
2023-02-04T08:20:56.353Z,38.75
2023-02-04T08:23:23.397Z,42.03
2023-02-04T08:25:52.535Z,45.78
2023-02-04T08:28:19.734Z,41.83
2023-02-04T08:30:46.941Z,47.85
2023-02-04T08:33:14.066Z,44.33
2023-02-04T08:35:41.053Z,27.60
2023-02-04T08:38:08.078Z,38.72
2023-02-04T08:40:35.124Z,38.55
2023-02-04T08:43:02.159Z,35.17
2023-02-04T08:45:29.225Z,37.95
2023-02-04T08:47:56.441Z,51.67
2023-02-04T08:50:23.452Z,37.30
2023-02-04T08:52:50.456Z,41.97
2023-02-04T08:55:17.515Z,39.75
2023-02-04T08:57:44.629Z,35.20
2023-02-04T09:00:12.623Z,37.65
2023-02-04T09:02:39.680Z,37.08
2023-02-04T09:05:07.210Z,43.55
2023-02-04T09:07:34.303Z,45.78
2023-02-04T09:10:01.427Z,31.42
2023-02-04T09:12:28.810Z,36.20
2023-02-04T09:14:55.831Z,38.60
2023-02-04T09:17:22.930Z,29.83
2023-02-04T09:19:49.948Z,32.83
2023-02-04T09:22:16.955Z,40.95
2023-02-04T09:24:44.027Z,33.28
2023-02-04T09:27:11.042Z,33.60
2023-02-04T09:29:38.475Z,37.03
2023-02-04T09:32:05.645Z,43.00
2023-02-04T09:34:32.716Z,31.13
2023-02-04T09:36:59.852Z,39.28
2023-02-04T09:39:28.539Z,38.47
2023-02-04T09:41:55.872Z,34.55
2023-02-04T09:44:26.327Z,51.53
2023-02-04T09:46:56.842Z,31.77
2023-02-04T09:49:25.444Z,52.13
2023-02-04T09:51:52.856Z,39.55
2023-02-04T09:54:22.034Z,34.50
2023-02-04T09:56:50.403Z,38.38
2023-02-04T09:59:22.863Z,43.85
2023-02-04T10:02:00.663Z,47.65
2023-02-04T10:04:28.918Z,46.88
2023-02-04T10:06:58.818Z,34.58
2023-02-04T10:09:26.132Z,35.00
2023-02-04T10:11:53.310Z,33.67
2023-02-04T10:14:23.336Z,35.55
2023-02-04T10:16:58.617Z,36.88
2023-02-04T10:19:28.573Z,52.22
2023-02-04T10:21:56.142Z,32.60
2023-02-04T10:24:26.409Z,32.63
2023-02-04T10:26:54.477Z,45.78
2023-02-04T10:29:26.954Z,34.60
2023-02-04T10:31:54.047Z,31.27
2023-02-04T10:34:24.620Z,26.77
2023-02-04T10:36:57.676Z,28.13
2023-02-04T10:39:27.334Z,35.40
2023-02-04T10:41:56.882Z,32.10
2023-02-04T10:44:32.304Z,39.17
2023-02-04T10:47:01.645Z,42.45
2023-02-04T10:49:29.032Z,35.17
2023-02-04T10:52:13.529Z,33.90
2023-02-04T10:54:40.556Z,32.53
2023-02-04T10:57:26.129Z,46.70
2023-02-04T11:00:00.040Z,34.80
2023-02-04T11:02:45.916Z,43.85
2023-02-04T11:05:28.145Z,30.20
2023-02-04T11:07:55.448Z,35.47
2023-02-04T11:10:27.911Z,35.22
2023-02-04T11:12:54.880Z,27.50
2023-02-04T11:15:40.169Z,34.47
2023-02-04T11:18:21.838Z,21.42
2023-02-04T11:21:25.207Z,29.02
2023-02-04T11:24:25.647Z,33.30
2023-02-04T11:27:05.429Z,32.65
2023-02-04T11:29:41.562Z,38.63
2023-02-04T11:32:32.001Z,27.17
2023-02-04T11:35:26.002Z,31.73
2023-02-04T11:37:54.578Z,36.67
2023-02-04T11:40:30.161Z,42.03
2023-02-04T11:43:00.163Z,23.33
2023-02-04T11:45:37.237Z,34.15
2023-02-04T11:48:12.979Z,30.30
2023-02-04T11:50:43.894Z,33.63
2023-02-04T11:53:12.261Z,28.65
2023-02-04T11:56:05.512Z,34.30
2023-02-04T11:59:37.765Z,27.35
2023-02-04T12:02:18.492Z,44.47
2023-02-04T12:05:16.604Z,29.45
2023-02-04T12:13:13.302Z,31.45
2023-02-04T12:20:33.491Z,23.20
2023-02-04T12:23:26.573Z,27.85
2023-02-04T12:29:21.920Z,21.10
2023-02-04T12:31:49.054Z,27.17
2023-02-04T12:34:17.297Z,20.50
2023-02-04T12:36:44.444Z,23.95
2023-02-04T12:43:36.553Z,31.30
2023-02-04T12:46:03.764Z,18.42
2023-02-04T12:48:31.185Z,19.85
2023-02-04T12:50:58.228Z,21.58
2023-02-04T12:53:25.348Z,28.83
2023-02-04T12:55:52.380Z,30.40
2023-02-04T12:58:19.428Z,21.63
2023-02-04T13:00:46.507Z,28.30
2023-02-04T13:03:13.551Z,22.50
2023-02-04T13:05:40.603Z,28.77
2023-02-04T13:08:07.841Z,22.63
2023-02-04T13:10:34.902Z,24.55
2023-02-04T13:13:04.430Z,22.50
2023-02-04T13:15:32.036Z,12.55
2023-02-04T13:17:59.226Z,29.58
2023-02-04T13:20:26.290Z,22.83
2023-02-04T13:22:53.247Z,21.05
2023-02-04T13:25:21.271Z,22.60
2023-02-04T13:27:48.358Z,32.00
2023-02-04T13:30:15.967Z,32.38
2023-02-04T13:32:43.452Z,27.13
2023-02-04T13:35:10.676Z,23.55
2023-02-04T13:37:38.747Z,22.02
2023-02-04T13:40:07.730Z,21.50
2023-02-04T13:42:35.151Z,22.85
2023-02-04T13:45:02.217Z,27.67
2023-02-04T13:47:29.351Z,27.30
2023-02-04T13:49:56.388Z,19.90
2023-02-04T13:52:23.598Z,19.50
2023-02-04T13:54:50.715Z,24.52
2023-02-04T13:57:17.861Z,31.55
2023-02-04T13:59:44.866Z,22.45
2023-02-04T14:02:11.867Z,27.52
2023-02-04T14:04:38.906Z,14.73
2023-02-04T14:07:05.892Z,27.17
2023-02-04T14:09:32.879Z,31.02
2023-02-04T14:11:59.888Z,16.08
2023-02-04T14:14:26.962Z,26.45
2023-02-04T14:16:54.204Z,25.75
2023-02-04T14:19:21.282Z,17.33
2023-02-04T14:21:53.377Z,18.95
2023-02-04T14:24:20.622Z,20.90
2023-02-04T14:26:47.866Z,22.27
2023-02-04T14:29:15.042Z,24.40
2023-02-04T14:31:42.095Z,20.48
2023-02-04T14:34:09.206Z,17.00
2023-02-04T14:36:36.258Z,27.45
2023-02-04T14:39:03.411Z,20.50
2023-02-04T14:41:31.251Z,18.48
2023-02-04T14:43:58.261Z,18.63
2023-02-04T14:46:25.304Z,15.25
2023-02-04T14:48:52.539Z,28.25
2023-02-04T14:51:19.607Z,30.58
2023-02-04T14:53:48.601Z,26.33
2023-02-04T14:56:16.706Z,26.88
2023-02-04T14:58:43.820Z,22.20
2023-02-04T15:01:10.910Z,23.35
2023-02-04T15:03:37.909Z,15.00
2023-02-04T15:06:05.144Z,22.90
2023-02-04T15:08:32.792Z,18.20
2023-02-04T15:11:00.005Z,18.13
2023-02-04T15:13:28.559Z,26.27
2023-02-04T15:15:55.556Z,12.45
2023-02-04T15:18:22.788Z,22.08
2023-02-04T15:20:49.860Z,21.17
2023-02-04T15:23:18.089Z,26.35
2023-02-04T15:25:45.367Z,17.33
2023-02-04T15:28:12.995Z,21.58
2023-02-04T15:30:40.124Z,20.92
2023-02-04T15:33:07.235Z,19.00
2023-02-04T15:35:34.314Z,23.10
2023-02-04T15:38:01.284Z,14.25
2023-02-04T15:41:29.525Z,18.13
2023-02-04T15:43:56.554Z,29.48
2023-02-04T15:47:06.596Z,26.65
2023-02-04T15:49:34.854Z,25.88
2023-02-04T15:52:02.377Z,22.70
2023-02-04T15:54:29.971Z,20.00
2023-02-04T15:56:57.950Z,30.23
2023-02-04T15:59:30.788Z,33.60
2023-02-04T16:01:57.810Z,24.80
2023-02-04T16:04:24.822Z,21.92
2023-02-04T16:06:58.486Z,27.23
2023-02-04T16:09:26.167Z,28.05
2023-02-04T16:11:53.173Z,31.88
2023-02-04T16:14:20.138Z,23.40
2023-02-04T16:16:47.286Z,34.88
2023-02-04T16:19:14.350Z,22.08
2023-02-04T16:21:41.436Z,22.27
2023-02-04T16:24:08.517Z,21.30
2023-02-04T16:26:35.632Z,25.92
2023-02-04T16:29:02.713Z,21.92
2023-02-04T16:31:29.921Z,27.10
2023-02-04T16:33:57.018Z,23.88
2023-02-04T16:36:24.148Z,27.58
2023-02-04T16:38:51.136Z,23.25
2023-02-04T16:41:18.153Z,19.13
2023-02-04T16:43:45.129Z,18.85
2023-02-04T16:46:14.156Z,26.38
2023-02-04T16:48:41.186Z,26.73
2023-02-04T16:51:09.730Z,28.02
2023-02-04T16:53:37.792Z,24.77
2023-02-04T16:56:05.326Z,26.27
2023-02-04T16:58:32.391Z,26.92
2023-02-04T17:00:59.862Z,30.02
2023-02-04T17:03:28.039Z,24.75
2023-02-04T17:05:55.302Z,26.42
2023-02-04T17:08:22.479Z,33.17
2023-02-04T17:11:08.632Z,37.25
2023-02-04T17:13:35.738Z,31.13
2023-02-04T17:16:02.861Z,39.28
2023-02-04T17:18:30.960Z,38.58
2023-02-04T17:20:59.081Z,30.67
2023-02-04T17:23:27.004Z,30.35
2023-02-04T17:25:58.471Z,24.27
2023-02-04T17:28:26.149Z,33.60
2023-02-04T17:30:53.417Z,33.25
2023-02-04T17:33:20.506Z,20.83
2023-02-04T17:35:47.652Z,29.15
2023-02-04T17:38:15.747Z,25.13
2023-02-04T17:40:42.978Z,34.03
2023-02-04T17:43:10.177Z,32.03
2023-02-04T17:45:38.081Z,22.13
2023-02-04T17:48:05.462Z,35.72
2023-02-04T17:53:04.593Z,29.75
2023-02-04T17:55:34.070Z,23.38
2023-02-04T17:58:11.043Z,23.00
2023-02-04T18:00:38.641Z,25.95
2023-02-04T18:03:10.564Z,28.35
2023-02-04T18:05:43.014Z,22.53
2023-02-04T18:08:16.150Z,26.33
2023-02-04T18:10:48.358Z,26.38
2023-02-04T18:13:23.636Z,18.48
2023-02-04T18:15:56.680Z,19.23
2023-02-04T18:18:25.182Z,21.67
2023-02-04T18:21:01.665Z,17.70
2023-02-04T18:23:32.500Z,12.73
2023-02-04T18:26:11.329Z,23.67
2023-02-04T18:28:41.938Z,17.33
2023-02-04T18:31:34.026Z,19.85
2023-02-04T18:34:12.912Z,16.47
2023-02-04T18:36:40.005Z,21.50
2023-02-04T18:39:19.411Z,19.83
2023-02-04T18:41:51.495Z,22.27
2023-02-04T18:44:36.040Z,14.20
2023-02-04T18:47:41.485Z,26.02
2023-02-04T18:50:29.809Z,25.58
2023-02-04T18:53:22.303Z,24.95
2023-02-04T18:55:52.302Z,19.10
2023-02-04T18:58:50.995Z,26.55
2023-02-04T19:01:27.731Z,29.85
2023-02-04T19:04:03.295Z,20.80
2023-02-04T19:06:43.353Z,28.88
2023-02-04T19:09:10.356Z,16.17
2023-02-04T19:11:38.387Z,19.80
2023-02-04T19:14:37.336Z,15.95
2023-02-04T19:17:07.450Z,25.38
2023-02-04T19:19:44.226Z,16.38
2023-02-04T19:22:30.714Z,15.00
2023-02-04T19:25:00.989Z,22.45
2023-02-04T19:27:43.166Z,30.13
2023-02-04T19:30:28.276Z,15.38
2023-02-04T19:32:57.457Z,17.35
2023-02-04T19:35:27.661Z,21.77
2023-02-04T19:38:02.639Z,18.33
2023-02-04T19:40:31.411Z,13.57
2023-02-04T19:43:24.425Z,21.80
2023-02-04T19:48:37.646Z,18.50
2023-02-04T19:51:23.709Z,20.83
2023-02-04T19:53:54.472Z,17.90
2023-02-04T19:56:39.468Z,22.58
2023-02-04T19:59:23.360Z,16.23
2023-02-04T20:02:14.372Z,21.10
2023-02-04T20:04:44.842Z,16.67
2023-02-04T20:07:25.429Z,17.15
2023-02-04T20:10:21.864Z,14.15
2023-02-04T20:12:51.164Z,15.45
2023-02-04T20:15:20.889Z,14.88
2023-02-04T20:17:49.270Z,20.05
2023-02-04T20:20:21.406Z,21.75
2023-02-04T20:22:51.036Z,14.80
2023-02-04T20:25:20.933Z,18.85
2023-02-04T20:27:58.397Z,21.90
2023-02-04T20:30:31.085Z,13.52
2023-02-04T20:33:11.429Z,16.80
2023-02-04T20:35:38.369Z,13.70
2023-02-04T20:38:16.007Z,15.90
2023-02-04T20:40:44.526Z,13.88
2023-02-04T20:43:19.744Z,16.38
2023-02-04T20:45:52.734Z,17.75
2023-02-04T20:48:24.971Z,21.73
2023-02-04T20:50:56.375Z,15.43
2023-02-04T20:53:42.264Z,18.10
2023-02-04T20:56:24.140Z,16.90
2023-02-04T20:58:55.192Z,21.70
2023-02-04T21:01:29.824Z,21.65
2023-02-04T21:03:57.980Z,14.95
2023-02-04T21:06:31.584Z,12.18
2023-02-04T21:08:59.671Z,15.00
2023-02-04T21:11:26.775Z,17.52
2023-02-04T21:13:54.242Z,12.52
2023-02-04T21:16:21.677Z,17.00
2023-02-04T21:18:48.850Z,16.80
2023-02-04T21:21:16.018Z,19.60
2023-02-04T21:23:43.049Z,19.70
2023-02-04T21:26:10.116Z,14.95
2023-02-04T21:28:37.144Z,13.27
2023-02-04T21:31:04.614Z,26.17
2023-02-04T21:33:32.036Z,19.20
2023-02-04T21:35:59.117Z,16.17
2023-02-04T21:38:26.229Z,20.90
2023-02-04T21:40:53.228Z,18.00
2023-02-04T21:43:20.300Z,16.73
2023-02-04T21:45:47.559Z,18.25
2023-02-04T21:48:14.821Z,12.05
2023-02-04T21:50:42.058Z,20.90
2023-02-04T21:53:11.739Z,14.90
2023-02-04T21:55:39.279Z,14.27
2023-02-04T21:58:07.254Z,14.70
2023-02-04T22:00:35.189Z,15.50
2023-02-04T22:03:02.326Z,12.38
2023-02-04T22:05:29.351Z,21.38
2023-02-04T22:07:57.968Z,18.38
2023-02-04T22:10:26.709Z,19.05
2023-02-04T22:12:53.781Z,14.00
2023-02-04T22:15:28.019Z,14.00
2023-02-04T22:17:55.425Z,13.73
2023-02-04T22:20:25.380Z,11.45
2023-02-04T22:22:53.383Z,16.73
2023-02-04T22:25:21.316Z,22.67
2023-02-04T22:27:49.087Z,22.70
2023-02-04T22:30:17.740Z,16.15
2023-02-04T22:32:44.840Z,20.85
2023-02-04T22:35:12.586Z,22.05
2023-02-04T22:37:40.894Z,13.23
2023-02-04T22:40:09.095Z,10.40
2023-02-04T22:42:36.137Z,19.08
2023-02-04T22:45:03.755Z,27.08
2023-02-04T22:47:31.291Z,20.50
2023-02-04T22:49:58.277Z,20.98
2023-02-04T22:52:25.330Z,15.07
2023-02-04T22:54:53.154Z,11.02
2023-02-04T22:57:20.178Z,17.27
2023-02-04T22:59:47.223Z,13.90
2023-02-04T23:02:14.397Z,21.60
2023-02-04T23:04:43.905Z,15.43
2023-02-04T23:07:12.327Z,16.70
2023-02-04T23:09:40.009Z,13.65
2023-02-04T23:12:13.149Z,17.27
2023-02-04T23:14:45.758Z,20.60
2023-02-04T23:19:39.976Z,26.83
2023-02-04T23:22:07.975Z,21.83
2023-02-04T23:24:35.393Z,24.27
2023-02-04T23:27:04.039Z,24.48
2023-02-04T23:29:38.076Z,14.90
2023-02-04T23:32:05.782Z,21.63
2023-02-04T23:34:32.849Z,21.83
2023-02-04T23:36:59.881Z,20.33
2023-02-04T23:39:27.164Z,13.85
2023-02-04T23:41:54.660Z,17.70
2023-02-04T23:44:21.706Z,20.38
2023-02-04T23:46:48.798Z,17.42
2023-02-04T23:49:15.952Z,12.85
2023-02-04T23:51:42.987Z,16.80
2023-02-04T23:54:10.184Z,14.05
2023-02-04T23:56:37.192Z,18.63
2023-02-04T23:59:04.380Z,14.82
